KLC334 ZUUU-VQPR
Flight info
| Callsign | KLC334 |
|---|---|
| Flight time | N/A |
| Altitude | 36100 |
| Route | MUMGO9W MUMGO B213 LXA B345 NONIM/N0461F361 B345 TUMLI G348 PRO |
| Aircraft | E190/M-SDE3GILORVW/S |
Departure
| Time | N/A |
|---|---|
| Airport | Chengdu Shuangliu International Airport (ZUUU) |
Arrival
| Time | 2026-05-03 21:42 |
|---|---|
| Airport | Paro International Airport (VQPR) |
| Time | Latitude | Longitude | Altitude | Speed | Heading |
|---|---|---|---|---|---|
| 2026-05-03 20:15 | 30.47883 | 94.04355 | 36264 ft | 401 kts | 260° |
| 2026-05-03 20:15 | 30.46570 | 93.98086 | 36275 ft | 400 kts | 260° |
| 2026-05-03 20:16 | 30.45265 | 93.91791 | 36259 ft | 401 kts | 260° |
| 2026-05-03 20:16 | 30.43958 | 93.85546 | 36208 ft | 398 kts | 260° |
| 2026-05-03 20:17 | 30.42636 | 93.79292 | 36301 ft | 400 kts | 259° |
| 2026-05-03 20:17 | 30.41310 | 93.73000 | 36274 ft | 403 kts | 259° |
| 2026-05-03 20:18 | 30.39984 | 93.66716 | 36260 ft | 401 kts | 259° |
| 2026-05-03 20:18 | 30.38602 | 93.60429 | 36249 ft | 406 kts | 253° |
| 2026-05-03 20:19 | 30.36282 | 93.54475 | 36280 ft | 410 kts | 249° |
| 2026-05-03 20:19 | 30.33888 | 93.48504 | 36232 ft | 410 kts | 249° |
| 2026-05-03 20:20 | 30.31480 | 93.42534 | 36245 ft | 409 kts | 249° |
| 2026-05-03 20:20 | 30.29064 | 93.36538 | 36249 ft | 410 kts | 249° |
| 2026-05-03 20:21 | 30.26626 | 93.30571 | 36186 ft | 410 kts | 248° |
| 2026-05-03 20:21 | 30.24239 | 93.24704 | 36249 ft | 403 kts | 249° |
| 2026-05-03 20:22 | 30.21833 | 93.18797 | 36208 ft | 406 kts | 249° |
| 2026-05-03 20:22 | 30.19428 | 93.12883 | 36271 ft | 406 kts | 249° |
| 2026-05-03 20:23 | 30.16953 | 93.06992 | 36281 ft | 404 kts | 249° |
| 2026-05-03 20:23 | 30.14495 | 93.01108 | 36214 ft | 407 kts | 249° |
| 2026-05-03 20:24 | 30.12108 | 92.95156 | 36207 ft | 409 kts | 249° |
| 2026-05-03 20:24 | 30.09680 | 92.89193 | 36209 ft | 411 kts | 249° |
| 2026-05-03 20:25 | 30.07241 | 92.83258 | 36226 ft | 412 kts | 249° |
| 2026-05-03 20:25 | 30.04784 | 92.77279 | 36193 ft | 412 kts | 249° |
| 2026-05-03 20:26 | 30.02310 | 92.71294 | 36179 ft | 414 kts | 249° |
| 2026-05-03 20:26 | 29.99832 | 92.65329 | 36206 ft | 413 kts | 248° |
| 2026-05-03 20:27 | 29.97372 | 92.59382 | 36165 ft | 413 kts | 249° |
| 2026-05-03 20:27 | 29.94901 | 92.53396 | 36152 ft | 414 kts | 248° |
| 2026-05-03 20:28 | 29.92405 | 92.47433 | 36183 ft | 413 kts | 248° |
| 2026-05-03 20:28 | 29.89925 | 92.41451 | 36161 ft | 413 kts | 248° |
| 2026-05-03 20:29 | 29.87454 | 92.35490 | 36172 ft | 411 kts | 248° |
| 2026-05-03 20:29 | 29.84973 | 92.29553 | 36210 ft | 408 kts | 248° |
| 2026-05-03 20:30 | 29.82497 | 92.23612 | 36157 ft | 412 kts | 248° |
| 2026-05-03 20:30 | 29.80002 | 92.17670 | 36124 ft | 409 kts | 248° |
| 2026-05-03 20:31 | 29.77552 | 92.11755 | 36064 ft | 411 kts | 248° |
| 2026-05-03 20:31 | 29.75053 | 92.05840 | 36137 ft | 412 kts | 248° |
| 2026-05-03 20:32 | 29.72555 | 91.99899 | 36135 ft | 412 kts | 248° |
| 2026-05-03 20:32 | 29.70061 | 91.94031 | 36104 ft | 411 kts | 247° |
| 2026-05-03 20:33 | 29.67562 | 91.88137 | 36190 ft | 412 kts | 248° |
| 2026-05-03 20:33 | 29.65479 | 91.83163 | 36069 ft | 412 kts | 248° |
| 2026-05-03 20:34 | 29.62961 | 91.77273 | 36118 ft | 411 kts | 247° |
| 2026-05-03 20:34 | 29.60444 | 91.71337 | 36017 ft | 415 kts | 248° |
| 2026-05-03 20:35 | 29.57968 | 91.65427 | 36127 ft | 409 kts | 247° |
| 2026-05-03 20:35 | 29.55445 | 91.59530 | 36081 ft | 412 kts | 248° |
| 2026-05-03 20:36 | 29.52935 | 91.53609 | 36121 ft | 412 kts | 248° |
| 2026-05-03 20:36 | 29.50416 | 91.47686 | 36067 ft | 410 kts | 247° |
| 2026-05-03 20:37 | 29.47898 | 91.41804 | 36070 ft | 414 kts | 246° |
| 2026-05-03 20:37 | 29.45361 | 91.35868 | 36040 ft | 413 kts | 247° |
| 2026-05-03 20:38 | 29.42830 | 91.29956 | 36088 ft | 413 kts | 247° |
| 2026-05-03 20:38 | 29.40277 | 91.24038 | 36163 ft | 414 kts | 246° |
| 2026-05-03 20:38 | 29.38992 | 91.21077 | 36032 ft | 412 kts | 248° |
| 2026-05-03 20:39 | 29.37743 | 91.18119 | 36031 ft | 413 kts | 247° |
| 2026-05-03 20:39 | 29.35216 | 91.12208 | 36058 ft | 413 kts | 247° |
| 2026-05-03 20:40 | 29.32670 | 91.06312 | 36059 ft | 413 kts | 246° |
| 2026-05-03 20:40 | 29.30342 | 91.00318 | 36095 ft | 409 kts | 257° |
| 2026-05-03 20:40 | 29.29974 | 90.97103 | 36099 ft | 408 kts | 271° |
| 2026-05-03 20:41 | 29.30046 | 90.93858 | 36094 ft | 408 kts | 272° |
| 2026-05-03 20:41 | 29.30245 | 90.87399 | 36079 ft | 407 kts | 272° |
| 2026-05-03 20:42 | 29.30472 | 90.80908 | 36076 ft | 407 kts | 272° |
| 2026-05-03 20:42 | 29.30709 | 90.74421 | 36081 ft | 407 kts | 272° |
| 2026-05-03 20:43 | 29.30947 | 90.67935 | 36095 ft | 407 kts | 272° |
| 2026-05-03 20:43 | 29.31185 | 90.61451 | 36082 ft | 407 kts | 272° |
| 2026-05-03 20:44 | 29.31415 | 90.55023 | 36098 ft | 405 kts | 272° |
| 2026-05-03 20:44 | 29.31653 | 90.48550 | 36111 ft | 408 kts | 272° |
| 2026-05-03 20:45 | 29.31885 | 90.42062 | 36115 ft | 406 kts | 272° |
| 2026-05-03 20:45 | 29.32145 | 90.35605 | 36090 ft | 406 kts | 271° |
| 2026-05-03 20:46 | 29.32356 | 90.29114 | 36137 ft | 409 kts | 272° |
| 2026-05-03 20:46 | 29.32569 | 90.22654 | 36140 ft | 407 kts | 271° |
| 2026-05-03 20:47 | 29.32785 | 90.16201 | 36074 ft | 405 kts | 272° |
| 2026-05-03 20:47 | 29.32997 | 90.09729 | 36138 ft | 408 kts | 272° |
| 2026-05-03 20:48 | 29.33210 | 90.03225 | 36107 ft | 408 kts | 271° |
| 2026-05-03 20:48 | 29.33396 | 89.96735 | 36120 ft | 405 kts | 271° |
| 2026-05-03 20:49 | 29.33606 | 89.90294 | 36089 ft | 407 kts | 271° |
| 2026-05-03 20:49 | 29.33814 | 89.83814 | 36107 ft | 407 kts | 271° |
| 2026-05-03 20:50 | 29.34020 | 89.77338 | 36131 ft | 403 kts | 271° |
| 2026-05-03 20:50 | 29.34217 | 89.70885 | 36119 ft | 406 kts | 272° |
| 2026-05-03 20:51 | 29.34413 | 89.64395 | 36077 ft | 407 kts | 271° |
| 2026-05-03 20:51 | 29.34605 | 89.57907 | 36081 ft | 407 kts | 271° |
| 2026-05-03 20:52 | 29.34792 | 89.51460 | 36056 ft | 407 kts | 271° |
| 2026-05-03 20:52 | 29.34977 | 89.44974 | 36065 ft | 407 kts | 271° |
| 2026-05-03 20:53 | 29.35159 | 89.38485 | 36039 ft | 407 kts | 271° |
| 2026-05-03 20:53 | 29.35322 | 89.31994 | 36048 ft | 407 kts | 268° |
| 2026-05-03 20:53 | 29.34925 | 89.28786 | 36047 ft | 409 kts | 255° |
| 2026-05-03 20:54 | 29.33805 | 89.25783 | 36059 ft | 414 kts | 242° |
| 2026-05-03 20:54 | 29.28101 | 89.18200 | 36061 ft | 419 kts | 232° |
| 2026-05-03 20:55 | 29.24129 | 89.13271 | 35967 ft | 422 kts | 232° |
| 2026-05-03 20:55 | 29.20153 | 89.08338 | 36015 ft | 424 kts | 232° |
| 2026-05-03 20:56 | 29.16201 | 89.03449 | 36010 ft | 420 kts | 232° |
| 2026-05-03 20:56 | 29.12221 | 88.98533 | 36047 ft | 421 kts | 231° |
| 2026-05-03 20:57 | 29.08223 | 88.93619 | 36040 ft | 421 kts | 231° |
| 2026-05-03 20:57 | 29.04235 | 88.88726 | 36036 ft | 422 kts | 232° |
| 2026-05-03 20:58 | 29.00231 | 88.83827 | 36104 ft | 423 kts | 231° |
| 2026-05-03 20:58 | 28.96219 | 88.78913 | 36049 ft | 423 kts | 231° |
| 2026-05-03 20:59 | 28.92197 | 88.73998 | 36056 ft | 423 kts | 231° |
| 2026-05-03 20:59 | 28.88195 | 88.69098 | 36086 ft | 420 kts | 231° |
| 2026-05-03 21:00 | 28.84884 | 88.65043 | 36085 ft | 422 kts | 231° |
| 2026-05-03 21:00 | 28.80218 | 88.59348 | 36089 ft | 422 kts | 231° |
| 2026-05-03 21:01 | 28.76224 | 88.54461 | 36124 ft | 419 kts | 231° |
| 2026-05-03 21:01 | 28.72222 | 88.49605 | 36101 ft | 421 kts | 231° |
| 2026-05-03 21:02 | 28.68239 | 88.44781 | 36088 ft | 418 kts | 231° |
| 2026-05-03 21:02 | 28.64256 | 88.39963 | 36065 ft | 418 kts | 231° |
| 2026-05-03 21:03 | 28.60283 | 88.35127 | 36111 ft | 416 kts | 231° |
| 2026-05-03 21:03 | 28.56304 | 88.30325 | 36154 ft | 418 kts | 230° |
| 2026-05-03 21:04 | 28.52326 | 88.25543 | 36148 ft | 420 kts | 231° |
| 2026-05-03 21:04 | 28.48320 | 88.20690 | 36128 ft | 420 kts | 230° |
| 2026-05-03 21:05 | 28.44313 | 88.15846 | 36119 ft | 421 kts | 231° |
| 2026-05-03 21:05 | 28.40291 | 88.10994 | 36132 ft | 423 kts | 231° |
| 2026-05-03 21:06 | 28.36258 | 88.06149 | 36120 ft | 420 kts | 230° |
| 2026-05-03 21:06 | 28.32259 | 88.01382 | 36137 ft | 419 kts | 230° |
| 2026-05-03 21:07 | 28.28245 | 87.96585 | 36161 ft | 419 kts | 230° |
| 2026-05-03 21:07 | 28.24237 | 87.91799 | 36159 ft | 417 kts | 230° |
| 2026-05-03 21:08 | 28.20222 | 87.87014 | 36076 ft | 421 kts | 231° |
| 2026-05-03 21:08 | 28.18238 | 87.84616 | 36228 ft | 417 kts | 230° |
| 2026-05-03 21:08 | 28.16224 | 87.82238 | 36201 ft | 419 kts | 231° |
| 2026-05-03 21:09 | 28.12197 | 87.77473 | 36205 ft | 420 kts | 231° |
| 2026-05-03 21:09 | 28.08189 | 87.72725 | 36163 ft | 421 kts | 231° |
| 2026-05-03 21:10 | 28.04134 | 87.67915 | 36233 ft | 420 kts | 230° |
| 2026-05-03 21:10 | 28.00104 | 87.63149 | 36220 ft | 417 kts | 230° |
| 2026-05-03 21:11 | 27.96126 | 87.58401 | 36220 ft | 415 kts | 230° |
| 2026-05-03 21:11 | 27.92101 | 87.53666 | 36248 ft | 418 kts | 230° |
| 2026-05-03 21:12 | 27.88078 | 87.48924 | 36250 ft | 418 kts | 230° |
| 2026-05-03 21:12 | 27.83954 | 87.44276 | 36251 ft | 422 kts | 221° |
| 2026-05-03 21:13 | 27.81421 | 87.42569 | 36284 ft | 430 kts | 209° |
| 2026-05-03 21:13 | 27.78649 | 87.41250 | 36239 ft | 432 kts | 207° |
| 2026-05-03 21:13 | 27.73105 | 87.38644 | 36203 ft | 435 kts | 207° |
| 2026-05-03 21:14 | 27.67545 | 87.36059 | 36181 ft | 434 kts | 207° |
| 2026-05-03 21:14 | 27.61960 | 87.33476 | 36194 ft | 435 kts | 207° |
| 2026-05-03 21:15 | 27.56420 | 87.30917 | 36141 ft | 425 kts | 208° |
| 2026-05-03 21:15 | 27.50967 | 87.28384 | 36164 ft | 424 kts | 207° |
| 2026-05-03 21:16 | 27.45493 | 87.25855 | 36140 ft | 427 kts | 208° |
| 2026-05-03 21:16 | 27.39978 | 87.23313 | 36127 ft | 430 kts | 206° |
| 2026-05-03 21:17 | 27.37042 | 87.22487 | 36164 ft | 443 kts | 191° |
| 2026-05-03 21:17 | 27.34981 | 87.22459 | 36191 ft | 453 kts | 180° |
| 2026-05-03 21:17 | 27.30916 | 87.23845 | 36193 ft | 476 kts | 156° |
| 2026-05-03 21:17 | 27.28244 | 87.26121 | 36106 ft | 490 kts | 137° |
| 2026-05-03 21:18 | 27.26235 | 87.29191 | 36126 ft | 496 kts | 126° |
| 2026-05-03 21:18 | 27.24436 | 87.32507 | 36101 ft | 497 kts | 126° |
| 2026-05-03 21:18 | 27.20810 | 87.39138 | 36058 ft | 497 kts | 126° |
| 2026-05-03 21:19 | 27.17163 | 87.45757 | 36062 ft | 498 kts | 126° |
| 2026-05-03 21:19 | 27.13527 | 87.52350 | 36050 ft | 497 kts | 126° |
| 2026-05-03 21:20 | 27.10487 | 87.57822 | 36055 ft | 496 kts | 126° |
| 2026-05-03 21:20 | 27.06833 | 87.64399 | 36057 ft | 497 kts | 126° |
| 2026-05-03 21:21 | 27.03178 | 87.70981 | 36043 ft | 494 kts | 126° |
| 2026-05-03 21:21 | 26.99522 | 87.77542 | 36058 ft | 498 kts | 126° |
| 2026-05-03 21:22 | 26.95843 | 87.84129 | 36021 ft | 500 kts | 126° |
| 2026-05-03 21:22 | 26.92169 | 87.90709 | 36026 ft | 496 kts | 126° |
| 2026-05-03 21:23 | 26.88522 | 87.97225 | 36039 ft | 497 kts | 126° |
| 2026-05-03 21:23 | 26.84842 | 88.03790 | 36001 ft | 497 kts | 126° |
| 2026-05-03 21:24 | 26.81171 | 88.10339 | 36013 ft | 497 kts | 126° |
| 2026-05-03 21:24 | 26.77482 | 88.16902 | 36003 ft | 498 kts | 126° |
| 2026-05-03 21:25 | 26.73835 | 88.23496 | 36006 ft | 498 kts | 125° |
| 2026-05-03 21:25 | 26.70317 | 88.30172 | 35835 ft | 498 kts | 117° |
| 2026-05-03 21:26 | 26.69377 | 88.33911 | 35318 ft | 500 kts | 95° |
| 2026-05-03 21:26 | 26.69525 | 88.37763 | 34723 ft | 501 kts | 77° |
| 2026-05-03 21:26 | 26.70748 | 88.41385 | 34095 ft | 496 kts | 57° |
| 2026-05-03 21:26 | 26.72618 | 88.44596 | 33400 ft | 495 kts | 52° |
| 2026-05-03 21:27 | 26.74599 | 88.47758 | 32759 ft | 493 kts | 51° |
| 2026-05-03 21:27 | 26.76610 | 88.50874 | 32085 ft | 494 kts | 51° |
| 2026-05-03 21:27 | 26.78619 | 88.53997 | 31455 ft | 495 kts | 51° |
| 2026-05-03 21:27 | 26.80624 | 88.57145 | 30794 ft | 498 kts | 51° |
| 2026-05-03 21:28 | 26.82626 | 88.60319 | 30143 ft | 500 kts | 51° |
| 2026-05-03 21:28 | 26.84625 | 88.63521 | 29439 ft | 501 kts | 52° |
| 2026-05-03 21:28 | 26.86579 | 88.66699 | 28869 ft | 501 kts | 52° |
| 2026-05-03 21:28 | 26.88542 | 88.69920 | 28173 ft | 499 kts | 53° |
| 2026-05-03 21:29 | 26.90471 | 88.73129 | 27519 ft | 494 kts | 53° |
| 2026-05-03 21:29 | 26.92370 | 88.76322 | 26883 ft | 488 kts | 54° |
| 2026-05-03 21:29 | 26.94232 | 88.79485 | 26227 ft | 482 kts | 54° |
| 2026-05-03 21:29 | 26.96056 | 88.82610 | 25599 ft | 475 kts | 55° |
| 2026-05-03 21:30 | 26.97833 | 88.85690 | 24977 ft | 466 kts | 55° |
| 2026-05-03 21:30 | 26.99506 | 88.88768 | 24407 ft | 459 kts | 60° |
| 2026-05-03 21:30 | 27.01022 | 88.91889 | 23784 ft | 453 kts | 60° |
| 2026-05-03 21:30 | 27.02535 | 88.94959 | 23139 ft | 445 kts | 60° |
| 2026-05-03 21:31 | 27.04005 | 88.97926 | 22639 ft | 434 kts | 60° |
| 2026-05-03 21:31 | 27.05463 | 89.00865 | 22042 ft | 428 kts | 60° |
| 2026-05-03 21:31 | 27.06894 | 89.03755 | 21494 ft | 420 kts | 60° |
| 2026-05-03 21:31 | 27.08305 | 89.06597 | 20955 ft | 413 kts | 60° |
| 2026-05-03 21:32 | 27.09695 | 89.09397 | 20371 ft | 407 kts | 60° |
| 2026-05-03 21:32 | 27.11062 | 89.12146 | 19922 ft | 399 kts | 60° |
| 2026-05-03 21:32 | 27.12402 | 89.14845 | 19369 ft | 394 kts | 60° |
| 2026-05-03 21:32 | 27.13723 | 89.17507 | 18894 ft | 388 kts | 60° |
| 2026-05-03 21:33 | 27.15033 | 89.20152 | 18333 ft | 385 kts | 60° |
| 2026-05-03 21:33 | 27.16305 | 89.22768 | 17799 ft | 378 kts | 63° |
| 2026-05-03 21:33 | 27.17226 | 89.25492 | 17377 ft | 370 kts | 76° |
| 2026-05-03 21:33 | 27.17592 | 89.28321 | 16870 ft | 362 kts | 86° |
| 2026-05-03 21:34 | 27.17785 | 89.31119 | 16396 ft | 356 kts | 86° |
| 2026-05-03 21:34 | 27.17986 | 89.33869 | 15923 ft | 350 kts | 85° |
| 2026-05-03 21:34 | 27.18188 | 89.36577 | 15442 ft | 346 kts | 85° |
| 2026-05-03 21:34 | 27.18388 | 89.39245 | 14984 ft | 337 kts | 85° |
| 2026-05-03 21:35 | 27.18581 | 89.41798 | 14546 ft | 315 kts | 85° |
| 2026-05-03 21:35 | 27.18909 | 89.44050 | 14216 ft | 268 kts | 77° |
| 2026-05-03 21:35 | 27.19463 | 89.45846 | 13890 ft | 222 kts | 67° |
| 2026-05-03 21:35 | 27.20114 | 89.47275 | 13547 ft | 196 kts | 59° |
| 2026-05-03 21:36 | 27.20851 | 89.48485 | 13272 ft | 180 kts | 52° |
| 2026-05-03 21:36 | 27.21643 | 89.49515 | 13042 ft | 170 kts | 46° |
| 2026-05-03 21:36 | 27.22497 | 89.50405 | 12820 ft | 165 kts | 39° |
| 2026-05-03 21:36 | 27.23413 | 89.51154 | 12645 ft | 162 kts | 31° |
| 2026-05-03 21:37 | 27.24381 | 89.51791 | 12457 ft | 161 kts | 29° |
| 2026-05-03 21:37 | 27.25368 | 89.52384 | 12245 ft | 160 kts | 27° |
| 2026-05-03 21:37 | 27.26353 | 89.52968 | 12010 ft | 160 kts | 28° |
| 2026-05-03 21:37 | 27.27329 | 89.53547 | 11787 ft | 157 kts | 27° |
| 2026-05-03 21:38 | 27.28301 | 89.54106 | 11600 ft | 156 kts | 23° |
| 2026-05-03 21:38 | 27.29348 | 89.54393 | 11458 ft | 155 kts | 4° |
| 2026-05-03 21:38 | 27.30409 | 89.54295 | 11306 ft | 156 kts | 347° |
| 2026-05-03 21:38 | 27.31413 | 89.53829 | 11088 ft | 158 kts | 328° |
| 2026-05-03 21:39 | 27.32244 | 89.53024 | 10845 ft | 158 kts | 310° |
| 2026-05-03 21:39 | 27.32809 | 89.51971 | 10601 ft | 157 kts | 292° |
| 2026-05-03 21:39 | 27.33052 | 89.50783 | 10374 ft | 155 kts | 275° |
| 2026-05-03 21:39 | 27.32992 | 89.49586 | 10199 ft | 152 kts | 265° |
| 2026-05-03 21:40 | 27.33003 | 89.48400 | 10042 ft | 152 kts | 279° |
| 2026-05-03 21:40 | 27.33294 | 89.47259 | 9880 ft | 152 kts | 294° |
| 2026-05-03 21:40 | 27.33908 | 89.46315 | 9605 ft | 153 kts | 326° |
| 2026-05-03 21:40 | 27.34872 | 89.45764 | 9116 ft | 159 kts | 340° |
| 2026-05-03 21:41 | 27.35902 | 89.45319 | 8674 ft | 153 kts | 338° |
| 2026-05-03 21:41 | 27.36829 | 89.44828 | 8432 ft | 146 kts | 334° |
| 2026-05-03 21:41 | 27.37711 | 89.44285 | 8224 ft | 144 kts | 331° |
| 2026-05-03 21:41 | 27.38582 | 89.43664 | 7894 ft | 149 kts | 326° |
| 2026-05-03 21:42 | 27.39456 | 89.43028 | 7484 ft | 151 kts | 329° |
| 2026-05-03 21:42 | 27.40323 | 89.42467 | 7326 ft | 133 kts | 330° |
| 2026-05-03 21:42 | 27.40964 | 89.42061 | 7350 ft | 75 kts | 330° |
| 2026-05-03 21:42 | 27.41216 | 89.41888 | 7356 ft | 11 kts | 353° |
| 2026-05-03 21:43 | 27.41240 | 89.41899 | 7356 ft | 1 kts | 91° |
| 2026-05-03 21:43 | 27.41235 | 89.41902 | 7357 ft | 1 kts | 136° |
| 2026-05-03 21:43 | 27.41218 | 89.41911 | 7356 ft | 4 kts | 155° |
| 2026-05-03 21:43 | 27.41186 | 89.41928 | 7356 ft | 7 kts | 155° |
| 2026-05-03 21:44 | 27.41136 | 89.41956 | 7353 ft | 9 kts | 151° |
| 2026-05-03 21:44 | 27.41076 | 89.41995 | 7352 ft | 11 kts | 150° |
| 2026-05-03 21:44 | 27.41007 | 89.42038 | 7351 ft | 12 kts | 152° |
| 2026-05-03 21:44 | 27.40928 | 89.42087 | 7348 ft | 11 kts | 151° |
| 2026-05-03 21:45 | 27.40857 | 89.42121 | 7346 ft | 10 kts | 181° |
| 2026-05-03 21:45 | 27.40806 | 89.42072 | 7345 ft | 8 kts | 202° |
| 2026-05-03 21:45 | 27.40757 | 89.42092 | 7343 ft | 9 kts | 152° |
| 2026-05-03 21:45 | 27.40697 | 89.42129 | 7342 ft | 11 kts | 149° |
| 2026-05-03 21:46 | 27.40649 | 89.42136 | 7340 ft | 6 kts | 226° |
| 2026-05-03 21:46 | 27.40631 | 89.42104 | 7338 ft | 0 kts | 239° |